sensor_id;sensor_type;location;lat;lon;timestamp;P1;durP1;ratioP1;P2;durP2;ratioP2
21663;SDS011;10993;52.510;13.456;2023-11-19T00:01:20;10.23;;;5.95;;
21663;SDS011;10993;52.510;13.456;2023-11-19T00:06:20;9.45;;;6.07;;
21663;SDS011;10993;52.510;13.456;2023-11-19T00:11:22;8.35;;;5.55;;
21663;SDS011;10993;52.510;13.456;2023-11-19T00:16:22;9.70;;;5.80;;
21663;SDS011;10993;52.510;13.456;2023-11-19T00:21:23;11.37;;;6.10;;
21663;SDS011;10993;52.510;13.456;2023-11-19T00:26:24;10.60;;;6.13;;
21663;SDS011;10993;52.510;13.456;2023-11-19T00:31:25;8.93;;;5.57;;
21663;SDS011;10993;52.510;13.456;2023-11-19T00:36:27;10.45;;;6.28;;
21663;SDS011;10993;52.510;13.456;2023-11-19T00:41:29;9.32;;;5.15;;
21663;SDS011;10993;52.510;13.456;2023-11-19T00:46:30;11.20;;;5.75;;
21663;SDS011;10993;52.510;13.456;2023-11-19T00:51:31;8.50;;;5.10;;
21663;SDS011;10993;52.510;13.456;2023-11-19T00:56:33;9.27;;;5.70;;
21663;SDS011;10993;52.510;13.456;2023-11-19T01:01:33;8.10;;;4.88;;
21663;SDS011;10993;52.510;13.456;2023-11-19T01:06:33;9.45;;;4.95;;
21663;SDS011;10993;52.510;13.456;2023-11-19T01:11:35;9.40;;;4.70;;
21663;SDS011;10993;52.510;13.456;2023-11-19T01:16:35;7.73;;;5.30;;
21663;SDS011;10993;52.510;13.456;2023-11-19T01:21:36;8.60;;;5.05;;
21663;SDS011;10993;52.510;13.456;2023-11-19T01:26:38;6.32;;;3.85;;
21663;SDS011;10993;52.510;13.456;2023-11-19T01:31:38;7.20;;;4.30;;
21663;SDS011;10993;52.510;13.456;2023-11-19T01:36:38;9.38;;;4.95;;
21663;SDS011;10993;52.510;13.456;2023-11-19T01:41:40;8.27;;;4.23;;
21663;SDS011;10993;52.510;13.456;2023-11-19T01:46:40;10.68;;;4.82;;
21663;SDS011;10993;52.510;13.456;2023-11-19T01:51:43;7.18;;;4.38;;
21663;SDS011;10993;52.510;13.456;2023-11-19T01:56:46;7.80;;;4.78;;
21663;SDS011;10993;52.510;13.456;2023-11-19T02:01:47;12.77;;;4.93;;
21663;SDS011;10993;52.510;13.456;2023-11-19T02:06:47;8.05;;;4.60;;
21663;SDS011;10993;52.510;13.456;2023-11-19T02:11:52;7.35;;;4.30;;
21663;SDS011;10993;52.510;13.456;2023-11-19T02:16:52;9.57;;;5.13;;
21663;SDS011;10993;52.510;13.456;2023-11-19T02:21:53;7.90;;;4.85;;
21663;SDS011;10993;52.510;13.456;2023-11-19T02:26:57;8.57;;;4.82;;
21663;SDS011;10993;52.510;13.456;2023-11-19T02:32:03;8.07;;;4.63;;
21663;SDS011;10993;52.510;13.456;2023-11-19T02:37:04;8.40;;;4.73;;
21663;SDS011;10993;52.510;13.456;2023-11-19T02:42:05;6.70;;;4.18;;
21663;SDS011;10993;52.510;13.456;2023-11-19T02:47:07;10.40;;;4.93;;
21663;SDS011;10993;52.510;13.456;2023-11-19T02:52:08;7.88;;;4.18;;
21663;SDS011;10993;52.510;13.456;2023-11-19T02:57:10;7.07;;;4.40;;
21663;SDS011;10993;52.510;13.456;2023-11-19T03:02:13;6.60;;;3.97;;
21663;SDS011;10993;52.510;13.456;2023-11-19T03:07:15;8.60;;;3.95;;
21663;SDS011;10993;52.510;13.456;2023-11-19T03:12:17;7.20;;;3.72;;
21663;SDS011;10993;52.510;13.456;2023-11-19T03:17:19;7.15;;;3.55;;
21663;SDS011;10993;52.510;13.456;2023-11-19T03:22:19;5.47;;;3.22;;
21663;SDS011;10993;52.510;13.456;2023-11-19T03:27:20;7.70;;;3.53;;
21663;SDS011;10993;52.510;13.456;2023-11-19T03:32:22;6.40;;;3.50;;
21663;SDS011;10993;52.510;13.456;2023-11-19T03:37:22;7.28;;;3.63;;
21663;SDS011;10993;52.510;13.456;2023-11-19T03:42:23;6.85;;;3.75;;
21663;SDS011;10993;52.510;13.456;2023-11-19T03:47:25;7.00;;;4.13;;
21663;SDS011;10993;52.510;13.456;2023-11-19T03:52:25;7.15;;;4.03;;
21663;SDS011;10993;52.510;13.456;2023-11-19T03:57:27;9.23;;;4.43;;
21663;SDS011;10993;52.510;13.456;2023-11-19T04:02:29;7.57;;;4.13;;
21663;SDS011;10993;52.510;13.456;2023-11-19T04:07:29;9.57;;;4.97;;
21663;SDS011;10993;52.510;13.456;2023-11-19T04:12:30;8.82;;;4.55;;
21663;SDS011;10993;52.510;13.456;2023-11-19T04:17:31;9.60;;;4.90;;
21663;SDS011;10993;52.510;13.456;2023-11-19T04:22:31;8.90;;;5.07;;
21663;SDS011;10993;52.510;13.456;2023-11-19T04:27:32;10.77;;;5.18;;
21663;SDS011;10993;52.510;13.456;2023-11-19T04:32:33;8.15;;;4.70;;
21663;SDS011;10993;52.510;13.456;2023-11-19T04:37:34;9.97;;;4.80;;
21663;SDS011;10993;52.510;13.456;2023-11-19T04:42:34;9.88;;;5.50;;
21663;SDS011;10993;52.510;13.456;2023-11-19T04:47:36;9.15;;;5.07;;
21663;SDS011;10993;52.510;13.456;2023-11-19T04:52:37;10.48;;;5.30;;
21663;SDS011;10993;52.510;13.456;2023-11-19T04:57:37;9.10;;;5.57;;
21663;SDS011;10993;52.510;13.456;2023-11-19T05:02:39;13.70;;;6.13;;
21663;SDS011;10993;52.510;13.456;2023-11-19T05:07:39;12.75;;;6.45;;
21663;SDS011;10993;52.510;13.456;2023-11-19T05:12:40;9.05;;;5.20;;
21663;SDS011;10993;52.510;13.456;2023-11-19T05:17:42;11.32;;;5.85;;
21663;SDS011;10993;52.510;13.456;2023-11-19T05:22:43;11.23;;;5.63;;
21663;SDS011;10993;52.510;13.456;2023-11-19T05:27:43;12.23;;;6.32;;
21663;SDS011;10993;52.510;13.456;2023-11-19T05:32:45;11.10;;;6.65;;
21663;SDS011;10993;52.510;13.456;2023-11-19T05:37:45;10.67;;;6.30;;
21663;SDS011;10993;52.510;13.456;2023-11-19T05:42:46;10.33;;;5.63;;
21663;SDS011;10993;52.510;13.456;2023-11-19T05:47:47;10.23;;;5.70;;
21663;SDS011;10993;52.510;13.456;2023-11-19T05:52:48;11.23;;;6.45;;
21663;SDS011;10993;52.510;13.456;2023-11-19T05:57:48;12.25;;;6.13;;
21663;SDS011;10993;52.510;13.456;2023-11-19T06:02:50;9.50;;;5.07;;
21663;SDS011;10993;52.510;13.456;2023-11-19T06:07:51;13.47;;;6.60;;
21663;SDS011;10993;52.510;13.456;2023-11-19T06:12:52;9.97;;;6.03;;
21663;SDS011;10993;52.510;13.456;2023-11-19T06:17:57;9.30;;;5.30;;
21663;SDS011;10993;52.510;13.456;2023-11-19T06:23:01;10.88;;;5.78;;
21663;SDS011;10993;52.510;13.456;2023-11-19T06:28:01;10.48;;;5.75;;
21663;SDS011;10993;52.510;13.456;2023-11-19T06:33:03;10.60;;;5.27;;
21663;SDS011;10993;52.510;13.456;2023-11-19T06:38:03;7.90;;;4.72;;
21663;SDS011;10993;52.510;13.456;2023-11-19T06:43:07;9.00;;;5.25;;
21663;SDS011;10993;52.510;13.456;2023-11-19T06:48:11;8.20;;;4.90;;
21663;SDS011;10993;52.510;13.456;2023-11-19T06:53:11;10.15;;;4.95;;
21663;SDS011;10993;52.510;13.456;2023-11-19T06:58:12;7.80;;;4.20;;
21663;SDS011;10993;52.510;13.456;2023-11-19T07:03:13;9.17;;;5.00;;
21663;SDS011;10993;52.510;13.456;2023-11-19T07:08:14;7.63;;;4.65;;
21663;SDS011;10993;52.510;13.456;2023-11-19T07:13:14;6.78;;;4.20;;
21663;SDS011;10993;52.510;13.456;2023-11-19T07:18:17;8.45;;;5.13;;
21663;SDS011;10993;52.510;13.456;2023-11-19T07:23:17;6.13;;;3.70;;
21663;SDS011;10993;52.510;13.456;2023-11-19T07:28:18;6.60;;;4.68;;
21663;SDS011;10993;52.510;13.456;2023-11-19T07:33:19;8.93;;;4.87;;
21663;SDS011;10993;52.510;13.456;2023-11-19T07:38:20;7.47;;;4.53;;
21663;SDS011;10993;52.510;13.456;2023-11-19T07:43:20;8.98;;;4.50;;
21663;SDS011;10993;52.510;13.456;2023-11-19T07:48:22;8.38;;;5.20;;
21663;SDS011;10993;52.510;13.456;2023-11-19T07:53:23;9.70;;;5.43;;
21663;SDS011;10993;52.510;13.456;2023-11-19T07:58:23;9.05;;;5.25;;
21663;SDS011;10993;52.510;13.456;2023-11-19T08:03:25;8.52;;;4.72;;
21663;SDS011;10993;52.510;13.456;2023-11-19T08:08:25;7.13;;;4.65;;
21663;SDS011;10993;52.510;13.456;2023-11-19T08:13:26;8.55;;;5.18;;
21663;SDS011;10993;52.510;13.456;2023-11-19T08:18:28;6.53;;;4.15;;
21663;SDS011;10993;52.510;13.456;2023-11-19T08:23:28;9.13;;;4.93;;
21663;SDS011;10993;52.510;13.456;2023-11-19T08:28:29;7.97;;;4.38;;
21663;SDS011;10993;52.510;13.456;2023-11-19T08:33:30;7.90;;;4.72;;
21663;SDS011;10993;52.510;13.456;2023-11-19T08:38:31;7.72;;;4.65;;
21663;SDS011;10993;52.510;13.456;2023-11-19T08:43:31;8.75;;;5.00;;
21663;SDS011;10993;52.510;13.456;2023-11-19T08:48:33;12.93;;;6.18;;
21663;SDS011;10993;52.510;13.456;2023-11-19T08:53:33;10.70;;;6.10;;
21663;SDS011;10993;52.510;13.456;2023-11-19T08:58:34;8.82;;;6.00;;
21663;SDS011;10993;52.510;13.456;2023-11-19T09:03:35;6.97;;;4.60;;
21663;SDS011;10993;52.510;13.456;2023-11-19T09:08:36;9.77;;;5.80;;
21663;SDS011;10993;52.510;13.456;2023-11-19T09:13:37;8.70;;;5.45;;
21663;SDS011;10993;52.510;13.456;2023-11-19T09:18:38;9.63;;;6.25;;
21663;SDS011;10993;52.510;13.456;2023-11-19T09:23:39;10.00;;;6.22;;
21663;SDS011;10993;52.510;13.456;2023-11-19T09:28:40;11.07;;;6.22;;
21663;SDS011;10993;52.510;13.456;2023-11-19T09:33:42;9.23;;;5.30;;
21663;SDS011;10993;52.510;13.456;2023-11-19T09:38:42;7.82;;;4.82;;
21663;SDS011;10993;52.510;13.456;2023-11-19T09:43:43;9.85;;;5.88;;
21663;SDS011;10993;52.510;13.456;2023-11-19T09:48:45;9.38;;;5.18;;
21663;SDS011;10993;52.510;13.456;2023-11-19T09:53:48;7.80;;;4.35;;
21663;SDS011;10993;52.510;13.456;2023-11-19T09:58:49;11.75;;;6.18;;
21663;SDS011;10993;52.510;13.456;2023-11-19T10:03:51;9.43;;;5.22;;
21663;SDS011;10993;52.510;13.456;2023-11-19T10:08:55;9.15;;;4.53;;
21663;SDS011;10993;52.510;13.456;2023-11-19T10:13:56;8.32;;;3.53;;
21663;SDS011;10993;52.510;13.456;2023-11-19T10:18:58;6.63;;;3.65;;
21663;SDS011;10993;52.510;13.456;2023-11-19T10:23:58;8.10;;;3.28;;
21663;SDS011;10993;52.510;13.456;2023-11-19T10:29:00;9.85;;;4.10;;
21663;SDS011;10993;52.510;13.456;2023-11-19T10:34:02;6.43;;;3.00;;
21663;SDS011;10993;52.510;13.456;2023-11-19T10:39:04;7.90;;;2.15;;
21663;SDS011;10993;52.510;13.456;2023-11-19T10:44:04;7.38;;;2.75;;
21663;SDS011;10993;52.510;13.456;2023-11-19T10:49:07;7.85;;;2.55;;
21663;SDS011;10993;52.510;13.456;2023-11-19T10:54:07;9.57;;;2.85;;
21663;SDS011;10993;52.510;13.456;2023-11-19T10:59:09;7.82;;;2.70;;
21663;SDS011;10993;52.510;13.456;2023-11-19T11:04:13;6.68;;;2.17;;
21663;SDS011;10993;52.510;13.456;2023-11-19T11:09:17;13.98;;;3.38;;
21663;SDS011;10993;52.510;13.456;2023-11-19T11:14:18;12.10;;;3.25;;
21663;SDS011;10993;52.510;13.456;2023-11-19T11:19:22;7.95;;;2.67;;
21663;SDS011;10993;52.510;13.456;2023-11-19T11:24:26;13.73;;;2.63;;
21663;SDS011;10993;52.510;13.456;2023-11-19T11:29:41;9.07;;;2.25;;
21663;SDS011;10993;52.510;13.456;2023-11-19T11:34:54;11.35;;;2.17;;
21663;SDS011;10993;52.510;13.456;2023-11-19T11:40:02;11.32;;;3.05;;
21663;SDS011;10993;52.510;13.456;2023-11-19T11:45:10;8.38;;;2.58;;
21663;SDS011;10993;52.510;13.456;2023-11-19T11:50:13;10.30;;;3.00;;
21663;SDS011;10993;52.510;13.456;2023-11-19T11:55:14;13.00;;;4.38;;
21663;SDS011;10993;52.510;13.456;2023-11-19T12:00:18;11.05;;;2.40;;
21663;SDS011;10993;52.510;13.456;2023-11-19T12:05:23;8.77;;;2.15;;
21663;SDS011;10993;52.510;13.456;2023-11-19T12:10:23;16.27;;;3.72;;
21663;SDS011;10993;52.510;13.456;2023-11-19T12:15:24;12.27;;;3.70;;
21663;SDS011;10993;52.510;13.456;2023-11-19T12:20:28;9.73;;;2.42;;
21663;SDS011;10993;52.510;13.456;2023-11-19T12:25:31;15.40;;;3.22;;
21663;SDS011;10993;52.510;13.456;2023-11-19T12:30:34;10.57;;;2.83;;
21663;SDS011;10993;52.510;13.456;2023-11-19T12:35:39;12.95;;;3.15;;
21663;SDS011;10993;52.510;13.456;2023-11-19T12:40:40;20.95;;;4.57;;
21663;SDS011;10993;52.510;13.456;2023-11-19T12:45:40;11.93;;;3.58;;
21663;SDS011;10993;52.510;13.456;2023-11-19T12:50:52;14.63;;;3.97;;
21663;SDS011;10993;52.510;13.456;2023-11-19T12:55:54;16.95;;;2.83;;
21663;SDS011;10993;52.510;13.456;2023-11-19T13:01:01;15.43;;;3.22;;
21663;SDS011;10993;52.510;13.456;2023-11-19T13:06:05;17.13;;;3.72;;
21663;SDS011;10993;52.510;13.456;2023-11-19T13:11:08;17.48;;;3.63;;
21663;SDS011;10993;52.510;13.456;2023-11-19T13:16:08;19.13;;;4.00;;
21663;SDS011;10993;52.510;13.456;2023-11-19T13:21:10;18.15;;;3.92;;
21663;SDS011;10993;52.510;13.456;2023-11-19T13:26:10;14.32;;;3.45;;
21663;SDS011;10993;52.510;13.456;2023-11-19T13:31:11;17.17;;;3.88;;
21663;SDS011;10993;52.510;13.456;2023-11-19T13:36:13;20.15;;;3.85;;
21663;SDS011;10993;52.510;13.456;2023-11-19T13:41:13;20.90;;;3.92;;
21663;SDS011;10993;52.510;13.456;2023-11-19T13:46:14;16.00;;;3.50;;
21663;SDS011;10993;52.510;13.456;2023-11-19T13:51:16;17.98;;;3.38;;
21663;SDS011;10993;52.510;13.456;2023-11-19T13:56:16;17.23;;;3.83;;
21663;SDS011;10993;52.510;13.456;2023-11-19T14:01:17;16.55;;;3.72;;
21663;SDS011;10993;52.510;13.456;2023-11-19T14:06:19;16.70;;;3.78;;
21663;SDS011;10993;52.510;13.456;2023-11-19T14:11:19;19.85;;;3.88;;
21663;SDS011;10993;52.510;13.456;2023-11-19T14:16:19;26.02;;;6.03;;
21663;SDS011;10993;52.510;13.456;2023-11-19T14:21:21;17.48;;;4.78;;
21663;SDS011;10993;52.510;13.456;2023-11-19T14:26:21;22.00;;;4.05;;
21663;SDS011;10993;52.510;13.456;2023-11-19T14:31:22;21.23;;;5.07;;
21663;SDS011;10993;52.510;13.456;2023-11-19T14:36:23;26.95;;;6.18;;
21663;SDS011;10993;52.510;13.456;2023-11-19T14:41:24;28.85;;;5.30;;
21663;SDS011;10993;52.510;13.456;2023-11-19T14:46:25;18.88;;;3.95;;
21663;SDS011;10993;52.510;13.456;2023-11-19T14:51:26;17.77;;;4.45;;
21663;SDS011;10993;52.510;13.456;2023-11-19T14:56:27;21.20;;;4.13;;
21663;SDS011;10993;52.510;13.456;2023-11-19T15:01:27;18.67;;;4.55;;
21663;SDS011;10993;52.510;13.456;2023-11-19T15:06:30;16.20;;;3.78;;
21663;SDS011;10993;52.510;13.456;2023-11-19T15:11:31;20.20;;;3.83;;
21663;SDS011;10993;52.510;13.456;2023-11-19T15:16:32;18.38;;;3.45;;
21663;SDS011;10993;52.510;13.456;2023-11-19T15:21:36;17.75;;;3.65;;
21663;SDS011;10993;52.510;13.456;2023-11-19T15:26:36;14.00;;;4.32;;
21663;SDS011;10993;52.510;13.456;2023-11-19T15:31:37;18.48;;;3.83;;
21663;SDS011;10993;52.510;13.456;2023-11-19T15:36:38;18.42;;;4.57;;
21663;SDS011;10993;52.510;13.456;2023-11-19T15:41:39;27.05;;;5.43;;
21663;SDS011;10993;52.510;13.456;2023-11-19T15:46:40;23.02;;;7.00;;
21663;SDS011;10993;52.510;13.456;2023-11-19T15:51:41;27.27;;;8.10;;
21663;SDS011;10993;52.510;13.456;2023-11-19T15:56:42;24.38;;;7.00;;
21663;SDS011;10993;52.510;13.456;2023-11-19T16:01:43;19.17;;;6.18;;
21663;SDS011;10993;52.510;13.456;2023-11-19T16:06:44;24.77;;;5.68;;
21663;SDS011;10993;52.510;13.456;2023-11-19T16:11:45;27.38;;;6.90;;
21663;SDS011;10993;52.510;13.456;2023-11-19T16:16:46;21.42;;;5.80;;
21663;SDS011;10993;52.510;13.456;2023-11-19T16:21:48;23.65;;;7.05;;
21663;SDS011;10993;52.510;13.456;2023-11-19T16:26:48;24.90;;;7.53;;
21663;SDS011;10993;52.510;13.456;2023-11-19T16:31:48;24.48;;;7.38;;
21663;SDS011;10993;52.510;13.456;2023-11-19T16:36:51;26.13;;;9.35;;
21663;SDS011;10993;52.510;13.456;2023-11-19T16:41:52;20.63;;;6.40;;
21663;SDS011;10993;52.510;13.456;2023-11-19T16:46:53;24.13;;;6.55;;
21663;SDS011;10993;52.510;13.456;2023-11-19T16:51:54;29.92;;;7.18;;
21663;SDS011;10993;52.510;13.456;2023-11-19T16:56:55;24.05;;;6.93;;
21663;SDS011;10993;52.510;13.456;2023-11-19T17:01:55;28.63;;;8.05;;
21663;SDS011;10993;52.510;13.456;2023-11-19T17:06:57;31.83;;;7.55;;
21663;SDS011;10993;52.510;13.456;2023-11-19T17:11:57;21.67;;;5.25;;
21663;SDS011;10993;52.510;13.456;2023-11-19T17:16:58;20.05;;;5.93;;
21663;SDS011;10993;52.510;13.456;2023-11-19T17:22:00;22.88;;;6.53;;
21663;SDS011;10993;52.510;13.456;2023-11-19T17:27:00;27.77;;;6.82;;
21663;SDS011;10993;52.510;13.456;2023-11-19T17:32:01;25.27;;;7.20;;
21663;SDS011;10993;52.510;13.456;2023-11-19T17:37:03;22.60;;;6.65;;
21663;SDS011;10993;52.510;13.456;2023-11-19T17:42:04;22.65;;;6.40;;
21663;SDS011;10993;52.510;13.456;2023-11-19T17:47:04;23.95;;;7.03;;
21663;SDS011;10993;52.510;13.456;2023-11-19T17:52:06;24.83;;;7.40;;
21663;SDS011;10993;52.510;13.456;2023-11-19T17:57:09;24.88;;;6.45;;
21663;SDS011;10993;52.510;13.456;2023-11-19T18:02:10;26.52;;;5.25;;
21663;SDS011;10993;52.510;13.456;2023-11-19T18:07:11;15.32;;;4.28;;
21663;SDS011;10993;52.510;13.456;2023-11-19T18:12:12;15.27;;;4.05;;
21663;SDS011;10993;52.510;13.456;2023-11-19T18:17:12;15.65;;;4.43;;
21663;SDS011;10993;52.510;13.456;2023-11-19T18:22:14;11.57;;;3.30;;
21663;SDS011;10993;52.510;13.456;2023-11-19T18:27:14;18.80;;;3.80;;
21663;SDS011;10993;52.510;13.456;2023-11-19T18:32:15;15.73;;;2.90;;
21663;SDS011;10993;52.510;13.456;2023-11-19T18:37:17;14.65;;;3.55;;
21663;SDS011;10993;52.510;13.456;2023-11-19T18:42:17;10.95;;;3.40;;
21663;SDS011;10993;52.510;13.456;2023-11-19T18:47:18;16.50;;;4.10;;
21663;SDS011;10993;52.510;13.456;2023-11-19T18:52:20;16.35;;;4.88;;
21663;SDS011;10993;52.510;13.456;2023-11-19T18:57:20;14.07;;;4.13;;
21663;SDS011;10993;52.510;13.456;2023-11-19T19:02:20;15.35;;;4.28;;
21663;SDS011;10993;52.510;13.456;2023-11-19T19:07:22;18.17;;;4.95;;
21663;SDS011;10993;52.510;13.456;2023-11-19T19:12:23;19.38;;;5.00;;
21663;SDS011;10993;52.510;13.456;2023-11-19T19:17:23;22.13;;;5.80;;
21663;SDS011;10993;52.510;13.456;2023-11-19T19:22:25;20.20;;;6.18;;
21663;SDS011;10993;52.510;13.456;2023-11-19T19:27:26;18.75;;;5.55;;
21663;SDS011;10993;52.510;13.456;2023-11-19T19:32:26;20.35;;;5.00;;
21663;SDS011;10993;52.510;13.456;2023-11-19T19:37:28;23.80;;;7.53;;
21663;SDS011;10993;52.510;13.456;2023-11-19T19:42:28;20.73;;;5.90;;
21663;SDS011;10993;52.510;13.456;2023-11-19T19:47:29;17.90;;;4.65;;
21663;SDS011;10993;52.510;13.456;2023-11-19T19:52:31;20.17;;;5.40;;
21663;SDS011;10993;52.510;13.456;2023-11-19T19:57:32;15.50;;;5.28;;
21663;SDS011;10993;52.510;13.456;2023-11-19T20:02:33;16.50;;;5.28;;
21663;SDS011;10993;52.510;13.456;2023-11-19T20:07:35;16.98;;;4.75;;
21663;SDS011;10993;52.510;13.456;2023-11-19T20:12:35;17.60;;;5.13;;
21663;SDS011;10993;52.510;13.456;2023-11-19T20:17:37;15.48;;;4.43;;
21663;SDS011;10993;52.510;13.456;2023-11-19T20:22:38;21.80;;;6.00;;
21663;SDS011;10993;52.510;13.456;2023-11-19T20:27:39;19.08;;;5.45;;
21663;SDS011;10993;52.510;13.456;2023-11-19T20:32:40;20.05;;;5.00;;
21663;SDS011;10993;52.510;13.456;2023-11-19T20:37:42;13.90;;;4.65;;
21663;SDS011;10993;52.510;13.456;2023-11-19T20:42:42;18.98;;;4.80;;
21663;SDS011;10993;52.510;13.456;2023-11-19T20:47:43;17.95;;;4.63;;
21663;SDS011;10993;52.510;13.456;2023-11-19T20:52:50;17.05;;;4.60;;
21663;SDS011;10993;52.510;13.456;2023-11-19T20:57:53;16.33;;;5.03;;
21663;SDS011;10993;52.510;13.456;2023-11-19T21:02:54;23.10;;;4.40;;
21663;SDS011;10993;52.510;13.456;2023-11-19T21:07:56;13.93;;;3.85;;
21663;SDS011;10993;52.510;13.456;2023-11-19T21:12:56;13.35;;;3.60;;
21663;SDS011;10993;52.510;13.456;2023-11-19T21:17:56;20.20;;;4.43;;
21663;SDS011;10993;52.510;13.456;2023-11-19T21:23:02;15.73;;;4.40;;
21663;SDS011;10993;52.510;13.456;2023-11-19T21:28:02;23.67;;;7.05;;
21663;SDS011;10993;52.510;13.456;2023-11-19T21:33:03;17.63;;;4.68;;
21663;SDS011;10993;52.510;13.456;2023-11-19T21:38:05;12.23;;;3.75;;
21663;SDS011;10993;52.510;13.456;2023-11-19T21:43:06;13.60;;;4.50;;
21663;SDS011;10993;52.510;13.456;2023-11-19T21:48:06;10.40;;;3.28;;
21663;SDS011;10993;52.510;13.456;2023-11-19T21:53:08;17.27;;;4.03;;
21663;SDS011;10993;52.510;13.456;2023-11-19T21:58:08;15.50;;;3.72;;
21663;SDS011;10993;52.510;13.456;2023-11-19T22:03:09;13.65;;;3.53;;
21663;SDS011;10993;52.510;13.456;2023-11-19T22:08:10;10.85;;;3.00;;
21663;SDS011;10993;52.510;13.456;2023-11-19T22:13:14;12.68;;;3.60;;
21663;SDS011;10993;52.510;13.456;2023-11-19T22:18:14;15.20;;;4.43;;
21663;SDS011;10993;52.510;13.456;2023-11-19T22:23:16;15.07;;;6.18;;
21663;SDS011;10993;52.510;13.456;2023-11-19T22:28:18;17.67;;;4.82;;
21663;SDS011;10993;52.510;13.456;2023-11-19T22:33:18;13.38;;;3.97;;
21663;SDS011;10993;52.510;13.456;2023-11-19T22:38:20;17.75;;;5.15;;
21663;SDS011;10993;52.510;13.456;2023-11-19T22:43:20;14.00;;;4.05;;
21663;SDS011;10993;52.510;13.456;2023-11-19T22:48:21;12.52;;;4.10;;
21663;SDS011;10993;52.510;13.456;2023-11-19T22:53:23;13.02;;;4.45;;
21663;SDS011;10993;52.510;13.456;2023-11-19T22:58:24;10.85;;;4.47;;
21663;SDS011;10993;52.510;13.456;2023-11-19T23:03:24;15.57;;;4.35;;
21663;SDS011;10993;52.510;13.456;2023-11-19T23:08:26;16.02;;;4.38;;
21663;SDS011;10993;52.510;13.456;2023-11-19T23:13:26;9.38;;;3.80;;
21663;SDS011;10993;52.510;13.456;2023-11-19T23:18:26;12.93;;;4.43;;
21663;SDS011;10993;52.510;13.456;2023-11-19T23:23:29;15.20;;;4.88;;
21663;SDS011;10993;52.510;13.456;2023-11-19T23:28:29;13.32;;;3.85;;
21663;SDS011;10993;52.510;13.456;2023-11-19T23:33:29;15.80;;;5.10;;
21663;SDS011;10993;52.510;13.456;2023-11-19T23:38:32;15.32;;;4.53;;
21663;SDS011;10993;52.510;13.456;2023-11-19T23:43:33;12.48;;;3.97;;
21663;SDS011;10993;52.510;13.456;2023-11-19T23:48:34;15.73;;;3.67;;
21663;SDS011;10993;52.510;13.456;2023-11-19T23:53:35;12.00;;;4.35;;
21663;SDS011;10993;52.510;13.456;2023-11-19T23:58:36;16.88;;;4.53;;
